Time;durP1;ratioP1;P1;durP2;ratioP2;P2;SDS_P1;SDS_P2;PMS_P1;PMS_P2;Temp;Humidity;BMP_temperature;BMP_pressure;BME280_temperature;BME280_humidity;BME280_pressure;Samples;Min_cycle;Max_cycle;Signal;HPM_P1;HPM_P2
2022/06/08 00:00:37;;;;;;;;;;;19.40;73.90;;;;;;5074395;28;19928;-78
2022/06/08 00:03:06;;;;;;;;;;;19.40;74.00;;;;;;5070938;28;19943;-78
2022/06/08 00:05:32;;;;;;;;;;;19.30;74.00;;;;;;5075938;28;19940;-74
2022/06/08 00:07:59;;;;;;;;;;;19.30;74.20;;;;;;5071009;28;19936;-75
2022/06/08 00:10:26;;;;;;;;;;;19.30;74.20;;;;;;5073708;28;19932;-79
2022/06/08 00:12:52;;;;;;;;;;;19.30;74.20;;;;;;5082394;28;19942;-75
2022/06/08 00:15:21;;;;;;;;;;;19.20;74.30;;;;;;5077868;28;19971;-78
2022/06/08 00:17:47;;;;;;;;;;;19.20;74.30;;;;;;5076195;28;20331;-81
2022/06/08 00:20:14;;;;;;;;;;;19.20;74.30;;;;;;5069701;28;20583;-76
2022/06/08 00:22:41;;;;;;;;;;;19.20;74.40;;;;;;5075900;28;19928;-76
2022/06/08 00:25:08;;;;;;;;;;;19.10;74.30;;;;;;5070724;28;19936;-80
2022/06/08 00:27:35;;;;;;;;;;;19.10;74.40;;;;;;5076055;28;19970;-79
2022/06/08 00:30:01;;;;;;;;;;;19.10;74.40;;;;;;5075495;28;19928;-77
2022/06/08 00:32:29;;;;;;;;;;;19.00;74.30;;;;;;5075193;28;19933;-77
2022/06/08 00:34:56;;;;;;;;;;;19.00;74.40;;;;;;5074831;28;19935;-81
2022/06/08 00:37:23;;;;;;;;;;;19.00;74.30;;;;;;5065536;28;19928;-76
2022/06/08 00:39:50;;;;;;;;;;;19.00;74.40;;;;;;5068129;28;19928;-78
2022/06/08 00:42:17;;;;;;;;;;;18.90;74.40;;;;;;5068675;28;19935;-76
2022/06/08 00:44:45;;;;;;;;;;;18.90;74.50;;;;;;5071348;28;20433;-77
2022/06/08 00:47:13;;;;;;;;;;;18.80;74.40;;;;;;5072964;28;20751;-76
2022/06/08 00:49:42;;;;;;;;;;;18.80;74.50;;;;;;5069376;28;19981;-75
2022/06/08 00:52:09;;;;;;;;;;;18.80;74.60;;;;;;5068046;28;19933;-76
2022/06/08 00:54:37;;;;;;;;;;;18.80;74.80;;;;;;5071833;28;19978;-78
2022/06/08 00:57:09;;;;;;;;;;;18.80;74.80;;;;;;5073423;28;19932;-76
2022/06/08 00:59:36;;;;;;;;;;;18.70;74.90;;;;;;5069814;28;19931;-79
2022/06/08 01:02:04;;;;;;;;;;;18.70;74.90;;;;;;5073601;28;19977;-78
2022/06/08 01:04:30;;;;;;;;;;;18.70;75.00;;;;;;5068617;28;20403;-79
2022/06/08 01:06:59;;;;;;;;;;;18.60;75.00;;;;;;5069756;28;19929;-81
2022/06/08 01:09:31;;;;;;;;;;;18.60;75.10;;;;;;5072095;28;20015;-79
2022/06/08 01:11:58;;;;;;;;;;;18.60;75.20;;;;;;5073457;28;20281;-77
2022/06/08 01:14:26;;;;;;;;;;;18.60;75.30;;;;;;5071714;28;19924;-79
2022/06/08 01:16:54;;;;;;;;;;;18.60;75.50;;;;;;5073756;28;19939;-76
2022/06/08 01:19:21;;;;;;;;;;;18.50;75.40;;;;;;5079348;28;19936;-75
2022/06/08 01:21:53;;;;;;;;;;;18.50;75.40;;;;;;5076748;28;19997;-81
2022/06/08 01:24:19;;;;;;;;;;;18.50;75.50;;;;;;5076657;28;19954;-77
2022/06/08 01:26:51;;;;;;;;;;;18.40;75.50;;;;;;5073444;28;19932;-78
2022/06/08 01:29:20;;;;;;;;;;;18.40;75.80;;;;;;5075518;28;19925;-75
2022/06/08 01:31:52;;;;;;;;;;;18.40;75.70;;;;;;5072561;28;19981;-77
2022/06/08 01:34:24;;;;;;;;;;;18.40;75.70;;;;;;5081150;28;19936;-74
2022/06/08 01:37:00;;;;;;;;;;;18.40;75.80;;;;;;5073052;28;19934;-80
2022/06/08 01:39:32;;;;;;;;;;;18.30;75.80;;;;;;5072926;28;19932;-81
2022/06/08 01:42:03;;;;;;;;;;;18.30;75.80;;;;;;5076287;28;19928;-76
2022/06/08 01:44:41;;;;;;;;;;;18.30;75.90;;;;;;5075899;28;19935;-77
2022/06/08 01:47:11;;;;;;;;;;;18.30;76.10;;;;;;5077307;28;19939;-76
2022/06/08 01:49:41;;;;;;;;;;;18.20;76.10;;;;;;5071674;28;19924;-76
2022/06/08 01:52:30;;;;;;;;;;;18.20;76.10;;;;;;5074342;28;19939;-74
2022/06/08 01:55:01;;;;;;;;;;;18.20;76.20;;;;;;5074498;28;19924;-76
2022/06/08 01:57:35;;;;;;;;;;;18.20;76.20;;;;;;5078781;28;19932;-77
2022/06/08 02:00:05;;;;;;;;;;;18.20;76.30;;;;;;5076910;28;20591;-75
2022/06/08 02:02:33;;;;;;;;;;;18.10;76.20;;;;;;5072924;28;19963;-77
2022/06/08 02:05:03;;;;;;;;;;;18.10;76.40;;;;;;5084034;28;19928;-78
2022/06/08 02:07:34;;;;;;;;;;;18.10;76.40;;;;;;5075675;28;19932;-77
2022/06/08 02:10:03;;;;;;;;;;;18.10;76.40;;;;;;5074721;28;19971;-77
2022/06/08 02:12:31;;;;;;;;;;;18.10;77.20;;;;;;5077897;28;19950;-78
2022/06/08 02:14:59;;;;;;;;;;;18.10;76.60;;;;;;5075696;28;19976;-77
2022/06/08 02:17:29;;;;;;;;;;;18.00;76.60;;;;;;5079347;28;19924;-80
2022/06/08 02:19:58;;;;;;;;;;;18.00;76.60;;;;;;5082285;28;19991;-80
2022/06/08 02:22:27;;;;;;;;;;;17.90;76.60;;;;;;5084659;28;19928;-78
2022/06/08 02:24:58;;;;;;;;;;;18.00;76.70;;;;;;5077474;28;19935;-78
2022/06/08 02:27:28;;;;;;;;;;;18.00;76.80;;;;;;5075072;28;19928;-78
2022/06/08 02:29:57;;;;;;;;;;;17.90;76.80;;;;;;5070465;28;20031;-78
2022/06/08 02:35:12;;;;;;;;;;;17.90;76.80;;;;;;5070916;28;20004;-78
2022/06/08 02:37:39;;;;;;;;;;;17.90;76.90;;;;;;5072166;28;19991;-75
2022/06/08 02:40:10;;;;;;;;;;;17.90;77.00;;;;;;5073738;28;20553;-76
2022/06/08 02:42:39;;;;;;;;;;;17.90;77.00;;;;;;5071540;28;20416;-75
2022/06/08 02:45:09;;;;;;;;;;;17.80;77.10;;;;;;5072857;28;20018;-76
2022/06/08 02:47:37;;;;;;;;;;;17.80;77.10;;;;;;5071372;28;19928;-77
2022/06/08 02:50:05;;;;;;;;;;;17.80;77.20;;;;;;5077216;28;19924;-76
2022/06/08 02:52:32;;;;;;;;;;;17.80;77.20;;;;;;5076636;28;19925;-78
2022/06/08 02:54:59;;;;;;;;;;;17.70;77.30;;;;;;5076086;28;19925;-77
2022/06/08 02:57:31;;;;;;;;;;;17.70;77.30;;;;;;5076826;28;19920;-82
2022/06/08 03:00:00;;;;;;;;;;;17.70;77.30;;;;;;5072503;28;20011;-77
2022/06/08 03:02:29;;;;;;;;;;;17.70;77.40;;;;;;5077399;28;21011;-77
2022/06/08 03:04:58;;;;;;;;;;;17.70;77.40;;;;;;5083068;28;19924;-77
2022/06/08 03:07:27;;;;;;;;;;;17.60;77.40;;;;;;5079656;28;19981;-79
2022/06/08 03:09:54;;;;;;;;;;;17.60;77.40;;;;;;5077236;28;20407;-75
2022/06/08 03:12:26;;;;;;;;;;;17.60;77.40;;;;;;5080833;28;19932;-78
2022/06/08 03:14:54;;;;;;;;;;;17.60;77.50;;;;;;5081656;28;19939;-80
2022/06/08 03:17:24;;;;;;;;;;;17.60;77.50;;;;;;5077995;28;19936;-77
2022/06/08 03:19:51;;;;;;;;;;;17.60;77.60;;;;;;5075936;28;19928;-80
2022/06/08 03:22:19;;;;;;;;;;;17.50;77.50;;;;;;5077772;28;19936;-74
2022/06/08 03:24:46;;;;;;;;;;;17.50;77.60;;;;;;5082966;28;19931;-74
2022/06/08 03:27:13;;;;;;;;;;;17.40;77.60;;;;;;5076161;28;20067;-74
2022/06/08 03:29:39;;;;;;;;;;;17.50;77.70;;;;;;5079266;28;19932;-78
2022/06/08 03:32:08;;;;;;;;;;;17.40;77.60;;;;;;5077209;28;19974;-79
2022/06/08 03:34:34;;;;;;;;;;;17.40;77.70;;;;;;5079599;28;19928;-78
2022/06/08 03:37:01;;;;;;;;;;;17.40;77.60;;;;;;5081079;28;20436;-77
2022/06/08 03:39:28;;;;;;;;;;;17.40;77.70;;;;;;5086668;28;19977;-75
2022/06/08 03:41:54;;;;;;;;;;;17.30;77.60;;;;;;5082997;28;19925;-76
2022/06/08 03:44:21;;;;;;;;;;;17.40;77.70;;;;;;5080683;28;19977;-75
2022/06/08 03:46:50;;;;;;;;;;;17.30;77.70;;;;;;5075320;28;20320;-76
2022/06/08 03:49:19;;;;;;;;;;;17.30;77.70;;;;;;5083170;28;19924;-75
2022/06/08 03:51:46;;;;;;;;;;;17.30;77.80;;;;;;5084192;28;19928;-76
2022/06/08 03:54:14;;;;;;;;;;;17.20;77.70;;;;;;5076817;28;21776;-78
2022/06/08 03:56:41;;;;;;;;;;;17.20;77.80;;;;;;5081123;28;19931;-79
2022/06/08 03:59:08;;;;;;;;;;;17.30;77.90;;;;;;5077890;28;19936;-74
2022/06/08 04:01:35;;;;;;;;;;;17.20;77.80;;;;;;5083639;28;19924;-79
2022/06/08 04:04:01;;;;;;;;;;;17.20;77.90;;;;;;5082307;28;19935;-76
2022/06/08 04:06:29;;;;;;;;;;;17.10;77.90;;;;;;5079789;28;19931;-77
2022/06/08 04:08:56;;;;;;;;;;;17.10;77.90;;;;;;5082955;28;20338;-79
2022/06/08 04:11:23;;;;;;;;;;;17.10;78.00;;;;;;5080578;28;19959;-76
2022/06/08 04:13:49;;;;;;;;;;;17.10;78.00;;;;;;5080977;28;19931;-76
2022/06/08 04:16:16;;;;;;;;;;;17.10;78.10;;;;;;5084472;28;19928;-74
2022/06/08 04:18:43;;;;;;;;;;;17.10;78.10;;;;;;5087400;28;20033;-77
2022/06/08 04:21:11;;;;;;;;;;;17.00;78.00;;;;;;5078055;28;20022;-78
2022/06/08 04:23:40;;;;;;;;;;;17.10;78.20;;;;;;5082366;28;19940;-78
2022/06/08 04:26:06;;;;;;;;;;;17.00;78.10;;;;;;5081023;28;19927;-77
2022/06/08 04:28:33;;;;;;;;;;;17.00;78.20;;;;;;5083424;28;19928;-76
2022/06/08 04:31:01;;;;;;;;;;;17.00;78.30;;;;;;5088041;28;19939;-76
2022/06/08 04:33:28;;;;;;;;;;;16.90;78.30;;;;;;5079273;28;19935;-80
2022/06/08 04:35:55;;;;;;;;;;;17.00;78.40;;;;;;5078749;28;19993;-76
2022/06/08 04:38:22;;;;;;;;;;;16.90;78.30;;;;;;5084211;28;19924;-74
2022/06/08 04:40:50;;;;;;;;;;;17.00;78.40;;;;;;5080839;28;19989;-75
2022/06/08 04:43:17;;;;;;;;;;;16.90;78.40;;;;;;5078477;28;20016;-76
2022/06/08 04:45:44;;;;;;;;;;;16.90;78.50;;;;;;5075591;28;19929;-75
2022/06/08 04:48:11;;;;;;;;;;;16.90;78.50;;;;;;5078397;28;20810;-75
2022/06/08 04:50:37;;;;;;;;;;;16.80;78.40;;;;;;5076982;28;19943;-75
2022/06/08 04:53:04;;;;;;;;;;;16.80;78.50;;;;;;5082602;28;19927;-77
2022/06/08 04:55:31;;;;;;;;;;;16.80;78.60;;;;;;5080837;28;19931;-78
2022/06/08 04:58:01;;;;;;;;;;;16.80;78.70;;;;;;5081613;28;20426;-76
2022/06/08 05:00:28;;;;;;;;;;;16.80;78.70;;;;;;5076069;28;19928;-78
2022/06/08 05:02:55;;;;;;;;;;;16.70;80.10;;;;;;5089963;28;19928;-74
2022/06/08 05:05:23;;;;;;;;;;;16.60;80.70;;;;;;5086239;28;19924;-78
2022/06/08 05:07:50;;;;;;;;;;;16.60;80.80;;;;;;5080843;28;19928;-79
2022/06/08 05:10:17;;;;;;;;;;;16.60;80.90;;;;;;5082269;28;20408;-75
2022/06/08 05:12:44;;;;;;;;;;;16.50;81.00;;;;;;5084187;28;19932;-76
2022/06/08 05:15:14;;;;;;;;;;;16.50;81.00;;;;;;5083663;28;19958;-75
2022/06/08 05:17:41;;;;;;;;;;;16.50;80.90;;;;;;5081487;28;20416;-74
2022/06/08 05:20:09;;;;;;;;;;;16.50;80.90;;;;;;5082781;28;20552;-76
2022/06/08 05:22:37;;;;;;;;;;;16.60;81.70;;;;;;5083596;28;19931;-77
2022/06/08 05:25:04;;;;;;;;;;;16.50;80.80;;;;;;5087720;28;19977;-74
2022/06/08 05:27:31;;;;;;;;;;;16.50;80.70;;;;;;5082890;28;20346;-77
2022/06/08 05:29:57;;;;;;;;;;;16.50;80.70;;;;;;5084808;28;19932;-74
2022/06/08 05:32:25;;;;;;;;;;;16.60;80.80;;;;;;5080884;28;20311;-73
2022/06/08 05:34:52;;;;;;;;;;;16.60;80.80;;;;;;5090166;28;19937;-75
2022/06/08 05:37:18;;;;;;;;;;;16.50;80.60;;;;;;5074631;28;19947;-75
2022/06/08 05:39:45;;;;;;;;;;;16.60;80.70;;;;;;5090018;28;19940;-76
2022/06/08 05:42:11;;;;;;;;;;;16.50;80.60;;;;;;5082013;28;19924;-77
2022/06/08 05:44:38;;;;;;;;;;;16.50;80.70;;;;;;5080157;28;19927;-76
2022/06/08 05:47:05;;;;;;;;;;;16.50;80.60;;;;;;5070774;28;19928;-77
2022/06/08 05:49:34;;;;;;;;;;;16.50;80.70;;;;;;5086164;28;19932;-81
2022/06/08 05:52:02;;;;;;;;;;;16.50;80.80;;;;;;5086553;28;19978;-76
2022/06/08 05:54:29;;;;;;;;;;;16.50;80.60;;;;;;5083497;28;19939;-75
2022/06/08 05:56:56;;;;;;;;;;;16.50;80.60;;;;;;5080505;28;20019;-80
2022/06/08 05:59:22;;;;;;;;;;;16.50;80.50;;;;;;5078394;28;19975;-75
2022/06/08 06:01:49;;;;;;;;;;;16.50;80.40;;;;;;5081090;28;19932;-80
2022/06/08 06:04:16;;;;;;;;;;;16.50;80.40;;;;;;5077935;28;19924;-80
2022/06/08 06:06:46;;;;;;;;;;;16.50;80.30;;;;;;5081044;28;19925;-76
2022/06/08 06:09:13;;;;;;;;;;;16.50;80.30;;;;;;5075794;28;19955;-78
2022/06/08 06:11:39;;;;;;;;;;;16.60;80.20;;;;;;5075453;28;21045;-75
2022/06/08 06:14:06;;;;;;;;;;;16.60;80.10;;;;;;5076455;28;19932;-77
2022/06/08 06:16:33;;;;;;;;;;;16.60;80.00;;;;;;5074354;28;19924;-77
2022/06/08 06:18:59;;;;;;;;;;;16.60;80.00;;;;;;5081595;28;19935;-77
2022/06/08 06:21:26;;;;;;;;;;;16.60;80.00;;;;;;5079161;28;19935;-79
2022/06/08 06:23:54;;;;;;;;;;;16.60;80.00;;;;;;5079150;28;19935;-77
2022/06/08 06:26:21;;;;;;;;;;;16.60;80.00;;;;;;5085525;28;19927;-75
2022/06/08 06:28:48;;;;;;;;;;;16.60;80.10;;;;;;5084692;28;19931;-81
2022/06/08 06:31:15;;;;;;;;;;;16.70;80.20;;;;;;5078240;28;20514;-74
2022/06/08 06:33:42;;;;;;;;;;;16.70;80.30;;;;;;5079749;28;19982;-78
2022/06/08 06:36:08;;;;;;;;;;;16.70;80.40;;;;;;5088666;28;19920;-76
2022/06/08 06:38:35;;;;;;;;;;;16.70;80.40;;;;;;5079088;28;20372;-76
2022/06/08 06:41:03;;;;;;;;;;;16.70;80.40;;;;;;5079002;28;20430;-78
2022/06/08 06:43:30;;;;;;;;;;;16.70;80.50;;;;;;5082809;28;19924;-77
2022/06/08 06:45:56;;;;;;;;;;;16.70;80.80;;;;;;5079514;28;19928;-76
2022/06/08 06:48:23;;;;;;;;;;;16.80;81.10;;;;;;5086232;28;19928;-79
2022/06/08 06:50:50;;;;;;;;;;;16.80;81.30;;;;;;5078503;28;19921;-77
2022/06/08 06:53:16;;;;;;;;;;;16.80;81.50;;;;;;5095788;28;19932;-76
2022/06/08 06:55:43;;;;;;;;;;;16.80;81.60;;;;;;5082821;28;19932;-78
2022/06/08 06:58:11;;;;;;;;;;;16.80;81.60;;;;;;5092545;28;19928;-78
2022/06/08 07:00:37;;;;;;;;;;;16.90;81.90;;;;;;5079008;28;19927;-77
2022/06/08 07:03:04;;;;;;;;;;;16.90;81.90;;;;;;5083982;28;19933;-78
2022/06/08 07:05:32;;;;;;;;;;;16.90;81.80;;;;;;5082344;28;19975;-78
2022/06/08 07:07:58;;;;;;;;;;;16.90;81.80;;;;;;5081035;28;19978;-79
2022/06/08 07:10:25;;;;;;;;;;;16.90;82.00;;;;;;5088218;28;19924;-77
2022/06/08 07:12:52;;;;;;;;;;;17.00;82.40;;;;;;5082865;28;19973;-75
2022/06/08 07:15:21;;;;;;;;;;;17.00;82.70;;;;;;5088202;28;19924;-79
2022/06/08 07:17:47;;;;;;;;;;;17.00;82.70;;;;;;5087950;28;19932;-78
2022/06/08 07:20:14;;;;;;;;;;;17.00;82.80;;;;;;5084637;28;19935;-76
2022/06/08 07:22:41;;;;;;;;;;;17.10;82.60;;;;;;5085240;28;20027;-79
2022/06/08 07:25:09;;;;;;;;;;;17.10;82.30;;;;;;5084957;28;19933;-80
2022/06/08 07:27:35;;;;;;;;;;;17.10;82.20;;;;;;5087276;28;19931;-80
2022/06/08 07:30:02;;;;;;;;;;;17.10;82.10;;;;;;5085253;28;20452;-76
2022/06/08 07:32:30;;;;;;;;;;;17.20;81.90;;;;;;5076775;28;20373;-80
2022/06/08 07:34:57;;;;;;;;;;;17.20;81.70;;;;;;5087666;28;19920;-74
2022/06/08 07:37:24;;;;;;;;;;;17.20;81.50;;;;;;5078122;28;19928;-75
2022/06/08 07:39:51;;;;;;;;;;;17.20;81.30;;;;;;5068254;28;19928;-75
2022/06/08 07:42:18;;;;;;;;;;;17.30;81.10;;;;;;5073841;28;19950;-78
2022/06/08 07:44:45;;;;;;;;;;;17.30;80.80;;;;;;5080640;28;19967;-75
2022/06/08 07:47:12;;;;;;;;;;;17.30;80.40;;;;;;5076508;28;19932;-77
2022/06/08 07:49:39;;;;;;;;;;;17.30;80.30;;;;;;5078803;28;19924;-76
2022/06/08 07:52:07;;;;;;;;;;;17.40;80.10;;;;;;5073131;28;19935;-75
2022/06/08 07:54:34;;;;;;;;;;;17.40;80.00;;;;;;5084827;28;19928;-76
2022/06/08 07:57:02;;;;;;;;;;;17.40;79.80;;;;;;5074399;28;19931;-77
2022/06/08 07:59:29;;;;;;;;;;;17.40;79.70;;;;;;5074884;28;19928;-76
2022/06/08 08:01:57;;;;;;;;;;;17.50;79.80;;;;;;5072213;28;19928;-78
2022/06/08 08:04:23;;;;;;;;;;;17.50;79.90;;;;;;5077340;28;20766;-78
2022/06/08 08:06:51;;;;;;;;;;;17.50;79.70;;;;;;5081803;28;19924;-77
2022/06/08 08:09:18;;;;;;;;;;;17.60;79.50;;;;;;5080832;28;20341;-76
2022/06/08 08:11:46;;;;;;;;;;;17.60;79.30;;;;;;5079386;28;19934;-76
2022/06/08 08:14:12;;;;;;;;;;;17.60;78.90;;;;;;5076466;28;19986;-79
2022/06/08 08:16:39;;;;;;;;;;;17.70;78.70;;;;;;5075986;28;19928;-77
2022/06/08 08:19:06;;;;;;;;;;;17.70;78.70;;;;;;5072857;28;19928;-76
2022/06/08 08:21:32;;;;;;;;;;;17.70;78.80;;;;;;5073440;28;20427;-76
2022/06/08 08:24:00;;;;;;;;;;;17.80;79.10;;;;;;5072657;28;19998;-77
2022/06/08 08:26:27;;;;;;;;;;;17.80;78.70;;;;;;5067654;28;20375;-80
2022/06/08 08:28:54;;;;;;;;;;;17.90;78.30;;;;;;5067174;28;20501;-79
2022/06/08 08:31:21;;;;;;;;;;;17.90;78.20;;;;;;5069966;28;19932;-76
2022/06/08 08:33:47;;;;;;;;;;;17.90;78.10;;;;;;5067481;28;19928;-81
2022/06/08 08:36:14;;;;;;;;;;;18.00;78.20;;;;;;5070615;28;19940;-76
2022/06/08 08:38:40;;;;;;;;;;;18.00;78.10;;;;;;5066665;28;20485;-79
2022/06/08 08:42:20;;;;;;;;;;;18.10;78.10;;;;;;5078850;28;21014;-77
2022/06/08 08:43:59;;;;;;;;;;;18.10;78.00;;;;;;5083419;28;20675;-77
2022/06/08 08:46:30;;;;;;;;;;;18.20;77.50;;;;;;5080312;28;19935;-82
2022/06/08 08:49:00;;;;;;;;;;;18.20;77.20;;;;;;5082045;28;19928;-80
2022/06/08 08:51:28;;;;;;;;;;;18.20;77.10;;;;;;5080532;28;19932;-78
2022/06/08 08:54:06;;;;;;;;;;;18.30;77.00;;;;;;5076840;28;20328;-80
2022/06/08 08:56:37;;;;;;;;;;;18.30;76.80;;;;;;5078166;28;19928;-76
2022/06/08 08:59:11;;;;;;;;;;;18.40;76.60;;;;;;5078267;28;20010;-78
2022/06/08 09:01:38;;;;;;;;;;;18.40;76.10;;;;;;5075594;28;19935;-76
2022/06/08 09:04:07;;;;;;;;;;;18.50;75.70;;;;;;5067107;28;19933;-77
2022/06/08 09:06:34;;;;;;;;;;;18.50;75.40;;;;;;5067824;28;21045;-76
2022/06/08 09:09:03;;;;;;;;;;;18.50;75.20;;;;;;5068064;28;19932;-78
2022/06/08 09:11:32;;;;;;;;;;;18.60;75.20;;;;;;5068062;28;20719;-76
2022/06/08 09:14:04;;;;;;;;;;;18.60;75.00;;;;;;5066042;28;19961;-76
2022/06/08 09:16:35;;;;;;;;;;;18.60;74.80;;;;;;5075910;28;20454;-78
2022/06/08 09:19:23;;;;;;;;;;;18.70;74.80;;;;;;5074763;28;19945;-76
2022/06/08 09:21:50;;;;;;;;;;;18.80;74.60;;;;;;5077141;28;19924;-77
2022/06/08 09:24:18;;;;;;;;;;;18.80;74.20;;;;;;5077717;28;20435;-77
2022/06/08 09:26:47;;;;;;;;;;;18.90;73.80;;;;;;5076817;28;20043;-77
2022/06/08 09:29:17;;;;;;;;;;;18.90;73.50;;;;;;5072924;28;19933;-77
2022/06/08 09:31:44;;;;;;;;;;;19.00;73.40;;;;;;5075330;28;19980;-77
2022/06/08 09:34:19;;;;;;;;;;;19.00;73.10;;;;;;5069442;28;19933;-77
2022/06/08 09:36:47;;;;;;;;;;;19.00;73.00;;;;;;5072595;28;19935;-77
2022/06/08 09:39:15;;;;;;;;;;;19.20;72.80;;;;;;5071501;28;20014;-77
2022/06/08 09:41:45;;;;;;;;;;;19.20;72.70;;;;;;5073281;28;19928;-78
2022/06/08 09:44:27;;;;;;;;;;;19.20;72.60;;;;;;5069194;28;19933;-77
2022/06/08 09:52:34;;;;;;;;;;;19.40;72.00;;;;;;5068880;28;20671;-78
2022/06/08 09:55:05;;;;;;;;;;;19.50;72.10;;;;;;5062969;28;19928;-79
2022/06/08 09:57:40;;;;;;;;;;;19.60;72.20;;;;;;5070458;28;19940;-77
2022/06/08 10:00:16;;;;;;;;;;;19.60;71.30;;;;;;5071780;28;20651;-79
2022/06/08 10:02:48;;;;;;;;;;;19.70;71.00;;;;;;5077819;28;20024;-77
2022/06/08 10:05:23;;;;;;;;;;;19.80;70.70;;;;;;5076363;28;19928;-77
2022/06/08 10:07:56;;;;;;;;;;;19.90;70.00;;;;;;5075948;28;19947;-78
2022/06/08 10:10:25;;;;;;;;;;;20.00;69.90;;;;;;5079136;28;19936;-79
2022/06/08 10:12:56;;;;;;;;;;;20.10;69.20;;;;;;5073942;28;20564;-77
2022/06/08 10:15:27;;;;;;;;;;;20.10;69.20;;;;;;5075856;28;19932;-76
2022/06/08 10:17:57;;;;;;;;;;;20.20;68.80;;;;;;5080115;28;20001;-76
2022/06/08 10:20:27;;;;;;;;;;;20.30;68.80;;;;;;5078276;28;20470;-77
2022/06/08 10:22:56;;;;;;;;;;;20.40;67.80;;;;;;5075120;28;19928;-77
2022/06/08 10:25:24;;;;;;;;;;;20.40;67.80;;;;;;5067588;28;20431;-77
2022/06/08 10:27:53;;;;;;;;;;;20.50;67.70;;;;;;5065948;28;19929;-77
2022/06/08 10:30:24;;;;;;;;;;;20.60;67.60;;;;;;5070288;28;19935;-78
2022/06/08 10:32:55;;;;;;;;;;;20.60;67.70;;;;;;5066336;28;20344;-77
2022/06/08 10:35:24;;;;;;;;;;;20.70;67.40;;;;;;5074543;28;20778;-79
2022/06/08 10:37:52;;;;;;;;;;;20.80;67.30;;;;;;5070617;28;19935;-78
2022/06/08 10:40:21;;;;;;;;;;;20.90;68.10;;;;;;5070223;28;19933;-79
2022/06/08 10:42:48;;;;;;;;;;;21.00;67.30;;;;;;5072018;28;19933;-79
2022/06/08 10:45:35;;;;;;;;;;;21.00;66.80;;;;;;5075872;28;20656;-78
2022/06/08 10:48:23;;;;;;;;;;;21.10;66.30;;;;;;5080326;28;19935;-77
2022/06/08 10:51:04;;;;;;;;;;;21.20;65.80;;;;;;5076431;28;19928;-79
2022/06/08 10:56:45;;;;;;;;;;;21.20;65.60;;;;;;5075310;28;19949;-77
2022/06/08 10:59:14;;;;;;;;;;;21.40;65.80;;;;;;5072530;28;19940;-79
2022/06/08 11:01:47;;;;;;;;;;;21.40;65.10;;;;;;5080586;28;19935;-79
2022/06/08 11:07:10;;;;;;;;;;;21.60;64.50;;;;;;5131930;27;19919;-78
2022/06/08 11:09:44;;;;;;;;;;;21.60;63.90;;;;;;5110908;27;19930;-77
2022/06/08 11:12:17;;;;;;;;;;;21.70;63.90;;;;;;5122081;27;19923;-78
2022/06/08 11:14:52;;;;;;;;;;;21.70;63.70;;;;;;5107661;27;19931;-75
2022/06/08 11:17:23;;;;;;;;;;;21.80;63.20;;;;;;5107764;27;19947;-77
2022/06/08 11:19:53;;;;;;;;;;;21.80;63.60;;;;;;5110636;27;19988;-76
2022/06/08 11:22:22;;;;;;;;;;;21.80;63.60;;;;;;5107273;27;20491;-74
2022/06/08 11:24:51;;;;;;;;;;;21.80;63.60;;;;;;5116467;27;19931;-75
2022/06/08 11:27:25;;;;;;;;;;;21.80;63.80;;;;;;5110126;27;20517;-75
2022/06/08 11:29:53;;;;;;;;;;;21.90;63.90;;;;;;5118445;27;19935;-76
2022/06/08 11:32:40;;;;;;;;;;;21.90;64.30;;;;;;5115729;27;19928;-75
2022/06/08 11:35:17;;;;;;;;;;;21.80;64.50;;;;;;5108588;28;19938;-75
2022/06/08 11:37:48;;;;;;;;;;;21.80;64.70;;;;;;5116251;27;19927;-74
2022/06/08 11:40:15;;;;;;;;;;;21.90;65.30;;;;;;5108360;27;19928;-78
2022/06/08 11:42:48;;;;;;;;;;;21.90;65.40;;;;;;5112548;27;19981;-76
2022/06/08 11:45:17;;;;;;;;;;;21.90;65.50;;;;;;5112899;27;19957;-74
2022/06/08 11:47:48;;;;;;;;;;;21.90;65.50;;;;;;5111976;27;19931;-75
2022/06/08 11:50:16;;;;;;;;;;;21.90;65.10;;;;;;5118190;27;20601;-74
2022/06/08 11:52:44;;;;;;;;;;;21.90;65.20;;;;;;5114890;27;20026;-76
2022/06/08 11:55:14;;;;;;;;;;;21.90;65.10;;;;;;5114109;27;19928;-75
2022/06/08 11:57:42;;;;;;;;;;;21.90;64.80;;;;;;5113887;27;19928;-74
2022/06/08 12:00:16;;;;;;;;;;;21.20;64.20;;;;;;5116340;27;19927;-75
2022/06/08 12:02:43;;;;;;;;;;;22.00;64.60;;;;;;5116097;27;19928;-77
2022/06/08 12:05:10;;;;;;;;;;;22.00;64.50;;;;;;5114771;27;19934;-76
2022/06/08 12:07:41;;;;;;;;;;;22.10;64.60;;;;;;5105647;27;19935;-78
2022/06/08 12:10:11;;;;;;;;;;;22.20;64.70;;;;;;5115634;27;20005;-75
2022/06/08 12:12:42;;;;;;;;;;;22.20;64.50;;;;;;5111682;27;20418;-76
2022/06/08 12:15:24;;;;;;;;;;;22.30;64.50;;;;;;5117710;27;19934;-75
2022/06/08 12:17:50;;;;;;;;;;;22.40;63.30;;;;;;5107382;28;20307;-75
2022/06/08 12:20:30;;;;;;;;;;;22.40;63.90;;;;;;5103472;28;19935;-75
2022/06/08 12:22:57;;;;;;;;;;;22.50;63.90;;;;;;5101574;27;19935;-75
2022/06/08 12:25:25;;;;;;;;;;;22.50;63.80;;;;;;5100563;27;20017;-74
2022/06/08 12:27:55;;;;;;;;;;;22.50;63.30;;;;;;5102401;27;19931;-75
2022/06/08 12:30:23;;;;;;;;;;;22.60;62.80;;;;;;5098023;27;20004;-76
2022/06/08 12:32:51;;;;;;;;;;;22.60;63.10;;;;;;5101256;28;19924;-79
2022/06/08 12:35:23;;;;;;;;;;;22.60;63.00;;;;;;5094004;27;20019;-76
2022/06/08 12:37:50;;;;;;;;;;;22.70;63.10;;;;;;5098597;28;20018;-76
2022/06/08 12:40:25;;;;;;;;;;;22.70;62.90;;;;;;5101340;28;19927;-74
2022/06/08 12:42:54;;;;;;;;;;;22.70;62.90;;;;;;5100595;28;19935;-78
2022/06/08 12:45:25;;;;;;;;;;;22.80;63.00;;;;;;5098732;27;20387;-74
2022/06/08 12:47:54;;;;;;;;;;;22.80;62.20;;;;;;5079657;28;19938;-78
2022/06/08 12:50:23;;;;;;;;;;;22.70;62.30;;;;;;5078342;28;19928;-75
2022/06/08 12:52:50;;;;;;;;;;;22.80;62.70;;;;;;5077358;28;19935;-77
2022/06/08 12:55:18;;;;;;;;;;;22.80;62.80;;;;;;5080610;28;20997;-76
2022/06/08 12:57:44;;;;;;;;;;;22.80;62.50;;;;;;5079384;28;19928;-73
2022/06/08 13:00:16;;;;;;;;;;;22.80;62.50;;;;;;5085879;27;19928;-76
2022/06/08 13:02:45;;;;;;;;;;;22.80;62.60;;;;;;5094275;28;20473;-76
2022/06/08 13:05:17;;;;;;;;;;;22.90;62.60;;;;;;5092907;28;19927;-76
2022/06/08 13:07:44;;;;;;;;;;;22.80;62.60;;;;;;5097593;28;19936;-72
2022/06/08 13:10:11;;;;;;;;;;;22.90;62.70;;;;;;5095977;28;19935;-79
2022/06/08 13:12:41;;;;;;;;;;;22.90;62.30;;;;;;5095864;28;19928;-76
2022/06/08 13:15:15;;;;;;;;;;;22.90;62.30;;;;;;5096574;28;19939;-77
2022/06/08 13:17:42;;;;;;;;;;;22.90;62.30;;;;;;5094625;28;20900;-80
2022/06/08 13:20:15;;;;;;;;;;;23.00;62.30;;;;;;5095550;28;20006;-77
2022/06/08 13:22:41;;;;;;;;;;;23.00;61.90;;;;;;5098287;28;19938;-78
2022/06/08 13:25:08;;;;;;;;;;;23.00;61.50;;;;;;5092757;28;19974;-75
2022/06/08 13:27:36;;;;;;;;;;;23.00;61.40;;;;;;5091033;28;19934;-79
2022/06/08 13:30:03;;;;;;;;;;;23.00;61.30;;;;;;5097603;28;19939;-79
2022/06/08 13:32:32;;;;;;;;;;;23.10;61.20;;;;;;5097751;28;19938;-77
2022/06/08 13:35:02;;;;;;;;;;;23.10;61.20;;;;;;5098486;27;19928;-78
2022/06/08 13:37:31;;;;;;;;;;;23.10;61.10;;;;;;5104000;28;19935;-77
2022/06/08 13:39:58;;;;;;;;;;;23.10;61.70;;;;;;5100128;28;20375;-76
2022/06/08 13:42:25;;;;;;;;;;;23.10;61.00;;;;;;5097988;28;21111;-77
2022/06/08 13:44:54;;;;;;;;;;;23.10;60.70;;;;;;5101242;28;20402;-78
2022/06/08 13:47:22;;;;;;;;;;;23.20;60.30;;;;;;5099811;28;19932;-77
2022/06/08 13:49:52;;;;;;;;;;;23.10;60.30;;;;;;5101762;28;20359;-78
2022/06/08 13:52:21;;;;;;;;;;;23.20;60.10;;;;;;5096289;28;19932;-80
2022/06/08 13:54:52;;;;;;;;;;;23.20;59.90;;;;;;5095269;28;19977;-76
2022/06/08 13:57:19;;;;;;;;;;;23.20;59.70;;;;;;5097593;28;19927;-77
2022/06/08 13:59:47;;;;;;;;;;;23.10;59.30;;;;;;5099662;28;19928;-74
2022/06/08 14:02:16;;;;;;;;;;;23.20;58.70;;;;;;5096517;28;20020;-77
2022/06/08 14:04:45;;;;;;;;;;;23.20;58.10;;;;;;5098669;28;20015;-76
2022/06/08 14:15:35;;;;;;;;;;;23.20;58.50;;;;;;5031922;28;19936;-77
2022/06/08 14:18:03;;;;;;;;;;;23.20;58.90;;;;;;5031050;28;19939;-77
2022/06/08 14:20:33;;;;;;;;;;;23.10;59.30;;;;;;5030889;28;19933;-80
2022/06/08 14:23:00;;;;;;;;;;;23.20;59.10;;;;;;5035470;28;20213;-76
2022/06/08 14:25:28;;;;;;;;;;;23.10;59.20;;;;;;5034851;28;19929;-76
2022/06/08 14:27:55;;;;;;;;;;;23.10;59.70;;;;;;5043057;28;20253;-76
2022/06/08 14:30:21;;;;;;;;;;;23.10;59.90;;;;;;5040651;28;19928;-74
2022/06/08 14:32:49;;;;;;;;;;;23.10;60.30;;;;;;5040335;28;19937;-75
2022/06/08 14:35:18;;;;;;;;;;;23.10;60.00;;;;;;5044516;28;19939;-74
2022/06/08 14:37:45;;;;;;;;;;;23.00;59.00;;;;;;5043593;28;19932;-75
2022/06/08 14:40:18;;;;;;;;;;;23.10;59.30;;;;;;5043147;28;19951;-76
2022/06/08 14:42:46;;;;;;;;;;;23.10;59.70;;;;;;5040122;28;19932;-77
2022/06/08 14:45:25;;;;;;;;;;;23.20;60.30;;;;;;5040978;28;19955;-75
2022/06/08 14:47:52;;;;;;;;;;;23.20;62.00;;;;;;5019312;28;20343;-76